ACA373 CYUL-CYWG
Flight info
| Callsign | ACA373 |
|---|---|
| Flight time | 2h 53m |
| Altitude | 36000 |
| Route | KESKA DCT BIPKO DCT IPSAK DCT OMEGI DCT RADEN DCT OVORA DCT GABOV DCT GOVIT NORAK6 |
| Aircraft | A321/M-SDE3FGHIRWY/LB1 |
Departure
| Time | 2026-05-06 12:56 |
|---|---|
| Airport | Montreal / Pierre Elliott Trudeau International Airport (CYUL) |
Arrival
| Time | 2026-05-06 15:49 |
|---|---|
| Airport | Winnipeg / James Armstrong Richardson International Airport (CYWG) |
| Time | Latitude | Longitude | Altitude | Speed | Heading |
|---|---|---|---|---|---|
| 2026-05-06 11:42 | 45.45889 | -73.74603 | 117 ft | 0 kts | 176° |
| 2026-05-06 12:35 | 45.45901 | -73.74604 | 111 ft | 4 kts | 180° |
| 2026-05-06 12:36 | 45.45928 | -73.74601 | 114 ft | 4 kts | 195° |
| 2026-05-06 12:36 | 45.45952 | -73.74586 | 113 ft | 4 kts | 219° |
| 2026-05-06 12:36 | 45.45968 | -73.74560 | 114 ft | 2 kts | 249° |
| 2026-05-06 12:36 | 45.45968 | -73.74557 | 114 ft | 0 kts | 249° |
| 2026-05-06 12:41 | 45.45967 | -73.74561 | 117 ft | 2 kts | 249° |
| 2026-05-06 12:41 | 45.45953 | -73.74631 | 114 ft | 14 kts | 258° |
| 2026-05-06 12:41 | 45.45976 | -73.74760 | 114 ft | 12 kts | 296° |
| 2026-05-06 12:41 | 45.45987 | -73.74859 | 114 ft | 8 kts | 271° |
| 2026-05-06 12:42 | 45.45988 | -73.74920 | 114 ft | 5 kts | 272° |
| 2026-05-06 12:42 | 45.46000 | -73.74994 | 113 ft | 9 kts | 289° |
| 2026-05-06 12:42 | 45.46008 | -73.75067 | 114 ft | 8 kts | 271° |
| 2026-05-06 12:42 | 45.46006 | -73.75182 | 113 ft | 13 kts | 269° |
| 2026-05-06 12:43 | 45.46030 | -73.75292 | 112 ft | 11 kts | 296° |
| 2026-05-06 12:43 | 45.46063 | -73.75361 | 112 ft | 6 kts | 326° |
| 2026-05-06 12:43 | 45.46085 | -73.75364 | 113 ft | 2 kts | 1° |
| 2026-05-06 12:43 | 45.46108 | -73.75361 | 114 ft | 5 kts | 11° |
| 2026-05-06 12:44 | 45.46138 | -73.75315 | 116 ft | 8 kts | 69° |
| 2026-05-06 12:44 | 45.46144 | -73.75232 | 117 ft | 7 kts | 88° |
| 2026-05-06 12:44 | 45.46146 | -73.75156 | 117 ft | 7 kts | 89° |
| 2026-05-06 12:44 | 45.46147 | -73.75107 | 117 ft | 5 kts | 88° |
| 2026-05-06 12:45 | 45.46149 | -73.75024 | 117 ft | 12 kts | 87° |
| 2026-05-06 12:45 | 45.46153 | -73.74905 | 118 ft | 10 kts | 88° |
| 2026-05-06 12:45 | 45.46158 | -73.74631 | 118 ft | 14 kts | 93° |
| 2026-05-06 12:46 | 45.46127 | -73.74528 | 114 ft | 9 kts | 109° |
| 2026-05-06 12:46 | 45.46125 | -73.74457 | 114 ft | 6 kts | 87° |
| 2026-05-06 12:46 | 45.46127 | -73.74397 | 116 ft | 8 kts | 87° |
| 2026-05-06 12:46 | 45.46130 | -73.74314 | 115 ft | 7 kts | 86° |
| 2026-05-06 12:47 | 45.46135 | -73.74183 | 115 ft | 17 kts | 86° |
| 2026-05-06 12:47 | 45.46157 | -73.74039 | 112 ft | 13 kts | 54° |
| 2026-05-06 12:47 | 45.46206 | -73.73970 | 115 ft | 7 kts | 44° |
| 2026-05-06 12:47 | 45.46239 | -73.73925 | 116 ft | 7 kts | 44° |
| 2026-05-06 12:48 | 45.46284 | -73.73866 | 117 ft | 12 kts | 43° |
| 2026-05-06 12:48 | 45.46345 | -73.73786 | 116 ft | 16 kts | 43° |
| 2026-05-06 12:48 | 45.46433 | -73.73670 | 120 ft | 16 kts | 43° |
| 2026-05-06 12:48 | 45.46505 | -73.73577 | 115 ft | 14 kts | 42° |
| 2026-05-06 12:49 | 45.46593 | -73.73462 | 113 ft | 18 kts | 41° |
| 2026-05-06 12:49 | 45.46677 | -73.73351 | 112 ft | 17 kts | 43° |
| 2026-05-06 12:49 | 45.46763 | -73.73237 | 112 ft | 15 kts | 43° |
| 2026-05-06 12:49 | 45.46828 | -73.73152 | 112 ft | 11 kts | 42° |
| 2026-05-06 12:50 | 45.46875 | -73.73091 | 115 ft | 8 kts | 43° |
| 2026-05-06 12:50 | 45.46916 | -73.73038 | 113 ft | 11 kts | 43° |
| 2026-05-06 12:50 | 45.46993 | -73.72936 | 115 ft | 17 kts | 43° |
| 2026-05-06 12:50 | 45.47075 | -73.72827 | 116 ft | 15 kts | 43° |
| 2026-05-06 12:51 | 45.47146 | -73.72733 | 114 ft | 15 kts | 41° |
| 2026-05-06 12:51 | 45.47247 | -73.72605 | 114 ft | 20 kts | 42° |
| 2026-05-06 12:51 | 45.47343 | -73.72477 | 112 ft | 17 kts | 43° |
| 2026-05-06 12:51 | 45.47426 | -73.72367 | 113 ft | 16 kts | 43° |
| 2026-05-06 12:52 | 45.47497 | -73.72274 | 115 ft | 12 kts | 42° |
| 2026-05-06 12:52 | 45.47545 | -73.72212 | 113 ft | 8 kts | 42° |
| 2026-05-06 12:52 | 45.47594 | -73.72148 | 117 ft | 9 kts | 42° |
| 2026-05-06 12:52 | 45.47633 | -73.72098 | 114 ft | 9 kts | 43° |
| 2026-05-06 12:53 | 45.47698 | -73.72012 | 114 ft | 13 kts | 43° |
| 2026-05-06 12:53 | 45.47757 | -73.71935 | 116 ft | 11 kts | 42° |
| 2026-05-06 12:53 | 45.47810 | -73.71865 | 116 ft | 10 kts | 43° |
| 2026-05-06 12:53 | 45.47847 | -73.71798 | 114 ft | 7 kts | 75° |
| 2026-05-06 12:54 | 45.47827 | -73.71737 | 111 ft | 7 kts | 135° |
| 2026-05-06 12:54 | 45.47767 | -73.71680 | 113 ft | 14 kts | 151° |
| 2026-05-06 12:54 | 45.47686 | -73.71649 | 113 ft | 10 kts | 182° |
| 2026-05-06 12:54 | 45.47650 | -73.71673 | 113 ft | 0 kts | 221° |
| 2026-05-06 12:55 | 45.47630 | -73.71700 | 113 ft | 25 kts | 223° |
| 2026-05-06 12:55 | 45.47317 | -73.72107 | 110 ft | 94 kts | 222° |
| 2026-05-06 12:55 | 45.46705 | -73.72911 | 112 ft | 144 kts | 223° |
| 2026-05-06 12:55 | 45.45895 | -73.73957 | 389 ft | 163 kts | 223° |
| 2026-05-06 12:56 | 45.45055 | -73.75048 | 926 ft | 165 kts | 222° |
| 2026-05-06 12:56 | 45.44211 | -73.76136 | 1578 ft | 163 kts | 223° |
| 2026-05-06 12:56 | 45.43347 | -73.77249 | 1971 ft | 176 kts | 224° |
| 2026-05-06 12:56 | 45.42386 | -73.78492 | 2150 ft | 198 kts | 224° |
| 2026-05-06 12:57 | 45.41302 | -73.79894 | 2319 ft | 224 kts | 224° |
| 2026-05-06 12:57 | 45.40087 | -73.81468 | 2714 ft | 248 kts | 224° |
| 2026-05-06 12:57 | 45.38783 | -73.83154 | 3474 ft | 256 kts | 224° |
| 2026-05-06 12:57 | 45.37408 | -73.84800 | 4419 ft | 259 kts | 221° |
| 2026-05-06 12:58 | 45.35996 | -73.86384 | 5400 ft | 259 kts | 220° |
| 2026-05-06 12:58 | 45.34562 | -73.87909 | 6448 ft | 255 kts | 218° |
| 2026-05-06 12:58 | 45.33119 | -73.89346 | 7438 ft | 252 kts | 216° |
| 2026-05-06 12:58 | 45.31674 | -73.90741 | 8382 ft | 251 kts | 215° |
| 2026-05-06 12:59 | 45.30228 | -73.92121 | 9307 ft | 250 kts | 215° |
| 2026-05-06 12:59 | 45.28824 | -73.93572 | 10143 ft | 250 kts | 225° |
| 2026-05-06 12:59 | 45.27842 | -73.95673 | 10553 ft | 271 kts | 247° |
| 2026-05-06 12:59 | 45.27692 | -73.98472 | 10749 ft | 306 kts | 276° |
| 2026-05-06 13:00 | 45.28695 | -74.01277 | 11245 ft | 336 kts | 305° |
| 2026-05-06 13:00 | 45.30638 | -74.03296 | 11916 ft | 358 kts | 326° |
| 2026-05-06 13:00 | 45.32996 | -74.04587 | 12628 ft | 369 kts | 337° |
| 2026-05-06 13:00 | 45.35489 | -74.05439 | 13329 ft | 376 kts | 342° |
| 2026-05-06 13:01 | 45.38074 | -74.06128 | 14007 ft | 380 kts | 343° |
| 2026-05-06 13:01 | 45.40685 | -74.06826 | 14644 ft | 382 kts | 342° |
| 2026-05-06 13:01 | 45.43297 | -74.07620 | 15280 ft | 384 kts | 340° |
| 2026-05-06 13:01 | 45.45896 | -74.08523 | 15944 ft | 386 kts | 338° |
| 2026-05-06 13:02 | 45.48502 | -74.09516 | 16519 ft | 389 kts | 336° |
| 2026-05-06 13:02 | 45.50269 | -74.10220 | 16938 ft | 391 kts | 336° |
| 2026-05-06 13:02 | 45.52901 | -74.11283 | 17567 ft | 394 kts | 336° |
| 2026-05-06 13:02 | 45.55551 | -74.12352 | 18180 ft | 398 kts | 336° |
| 2026-05-06 13:03 | 45.58202 | -74.13499 | 18699 ft | 396 kts | 330° |
| 2026-05-06 13:03 | 45.60629 | -74.15241 | 19215 ft | 386 kts | 318° |
| 2026-05-06 13:03 | 45.62685 | -74.17557 | 19745 ft | 377 kts | 307° |
| 2026-05-06 13:03 | 45.64367 | -74.20365 | 20296 ft | 369 kts | 297° |
| 2026-05-06 13:04 | 45.65900 | -74.23376 | 20859 ft | 371 kts | 297° |
| 2026-05-06 13:04 | 45.67414 | -74.26358 | 21386 ft | 373 kts | 297° |
| 2026-05-06 13:04 | 45.68940 | -74.29371 | 21904 ft | 375 kts | 297° |
| 2026-05-06 13:04 | 45.70470 | -74.32410 | 22399 ft | 377 kts | 296° |
| 2026-05-06 13:05 | 45.71711 | -74.35592 | 22871 ft | 368 kts | 285° |
| 2026-05-06 13:05 | 45.72476 | -74.39051 | 23349 ft | 361 kts | 275° |
| 2026-05-06 13:05 | 45.72790 | -74.42595 | 23764 ft | 359 kts | 269° |
| 2026-05-06 13:05 | 45.73027 | -74.46157 | 24190 ft | 361 kts | 269° |
| 2026-05-06 13:06 | 45.73273 | -74.49735 | 24629 ft | 362 kts | 270° |
| 2026-05-06 13:06 | 45.73527 | -74.53330 | 25093 ft | 363 kts | 270° |
| 2026-05-06 13:06 | 45.73783 | -74.56938 | 25505 ft | 365 kts | 270° |
| 2026-05-06 13:06 | 45.74036 | -74.60537 | 25932 ft | 366 kts | 269° |
| 2026-05-06 13:07 | 45.74289 | -74.64169 | 26348 ft | 367 kts | 269° |
| 2026-05-06 13:07 | 45.74539 | -74.67814 | 26765 ft | 369 kts | 269° |
| 2026-05-06 13:07 | 45.74784 | -74.71470 | 27177 ft | 370 kts | 269° |
| 2026-05-06 13:07 | 45.75028 | -74.75145 | 27565 ft | 371 kts | 269° |
| 2026-05-06 13:08 | 45.75272 | -74.78829 | 27956 ft | 373 kts | 269° |
| 2026-05-06 13:08 | 45.75518 | -74.82528 | 28360 ft | 374 kts | 269° |
| 2026-05-06 13:08 | 45.75813 | -74.86240 | 28743 ft | 379 kts | 273° |
| 2026-05-06 13:08 | 45.76380 | -74.89952 | 29117 ft | 383 kts | 275° |
| 2026-05-06 13:09 | 45.76962 | -74.93677 | 29523 ft | 384 kts | 275° |
| 2026-05-06 13:09 | 45.77541 | -74.97410 | 29903 ft | 385 kts | 275° |
| 2026-05-06 13:09 | 45.78116 | -75.01157 | 30224 ft | 386 kts | 274° |
| 2026-05-06 13:09 | 45.78691 | -75.04923 | 30528 ft | 387 kts | 274° |
| 2026-05-06 13:10 | 45.79265 | -75.08698 | 30840 ft | 389 kts | 274° |
| 2026-05-06 13:10 | 45.79840 | -75.12471 | 31279 ft | 387 kts | 274° |
| 2026-05-06 13:10 | 45.80417 | -75.16231 | 31723 ft | 385 kts | 274° |
| 2026-05-06 13:10 | 45.80990 | -75.19966 | 32145 ft | 383 kts | 274° |
| 2026-05-06 13:11 | 45.81559 | -75.23687 | 32576 ft | 382 kts | 274° |
| 2026-05-06 13:11 | 45.82124 | -75.27398 | 33033 ft | 380 kts | 274° |
| 2026-05-06 13:11 | 45.82683 | -75.31091 | 33527 ft | 378 kts | 274° |
| 2026-05-06 13:11 | 45.83233 | -75.34749 | 34011 ft | 374 kts | 274° |
| 2026-05-06 13:12 | 45.83776 | -75.38385 | 34385 ft | 372 kts | 274° |
| 2026-05-06 13:12 | 45.84315 | -75.42020 | 34691 ft | 372 kts | 274° |
| 2026-05-06 13:12 | 45.84854 | -75.45647 | 34967 ft | 373 kts | 274° |
| 2026-05-06 13:12 | 45.85394 | -75.49289 | 35228 ft | 373 kts | 275° |
| 2026-05-06 13:13 | 45.85927 | -75.52885 | 35484 ft | 374 kts | 275° |
| 2026-05-06 13:13 | 45.86467 | -75.56538 | 35730 ft | 375 kts | 275° |
| 2026-05-06 13:13 | 45.87015 | -75.60246 | 35811 ft | 374 kts | 275° |
| 2026-05-06 13:14 | 45.88084 | -75.67461 | 35850 ft | 371 kts | 275° |
| 2026-05-06 13:14 | 45.89140 | -75.74680 | 35819 ft | 369 kts | 274° |
| 2026-05-06 13:15 | 45.90189 | -75.81885 | 35813 ft | 368 kts | 274° |
| 2026-05-06 13:15 | 45.91240 | -75.89090 | 35812 ft | 369 kts | 274° |
| 2026-05-06 13:16 | 45.92286 | -75.96293 | 35809 ft | 368 kts | 274° |
| 2026-05-06 13:16 | 45.93508 | -76.03459 | 35803 ft | 376 kts | 283° |
| 2026-05-06 13:17 | 45.95764 | -76.10335 | 35814 ft | 381 kts | 286° |
| 2026-05-06 13:17 | 45.98066 | -76.17211 | 35793 ft | 382 kts | 286° |
| 2026-05-06 13:18 | 46.00355 | -76.24107 | 35786 ft | 382 kts | 286° |
| 2026-05-06 13:18 | 46.02636 | -76.31016 | 35781 ft | 382 kts | 286° |
| 2026-05-06 13:19 | 46.04915 | -76.37933 | 35778 ft | 383 kts | 286° |
| 2026-05-06 13:19 | 46.07201 | -76.44854 | 35802 ft | 383 kts | 286° |
| 2026-05-06 13:20 | 46.09483 | -76.51797 | 35781 ft | 384 kts | 286° |
| 2026-05-06 13:20 | 46.11764 | -76.58762 | 35770 ft | 384 kts | 285° |
| 2026-05-06 13:21 | 46.14045 | -76.65730 | 35766 ft | 385 kts | 286° |
| 2026-05-06 13:21 | 46.16314 | -76.72667 | 35766 ft | 385 kts | 285° |
| 2026-05-06 13:22 | 46.18582 | -76.79666 | 35793 ft | 385 kts | 285° |
| 2026-05-06 13:22 | 46.20850 | -76.86675 | 35782 ft | 385 kts | 285° |
| 2026-05-06 13:23 | 46.23117 | -76.93687 | 35794 ft | 386 kts | 286° |
| 2026-05-06 13:23 | 46.25391 | -77.00723 | 35783 ft | 386 kts | 286° |
| 2026-05-06 13:24 | 46.27649 | -77.07750 | 35780 ft | 386 kts | 286° |
| 2026-05-06 13:24 | 46.29904 | -77.14789 | 35802 ft | 386 kts | 286° |
| 2026-05-06 13:25 | 46.32159 | -77.21839 | 35787 ft | 386 kts | 286° |
| 2026-05-06 13:25 | 46.34406 | -77.28893 | 35782 ft | 386 kts | 286° |
| 2026-05-06 13:26 | 46.36649 | -77.35945 | 35768 ft | 386 kts | 286° |
| 2026-05-06 13:26 | 46.38892 | -77.43008 | 35765 ft | 386 kts | 286° |
| 2026-05-06 13:27 | 46.41133 | -77.50075 | 35766 ft | 386 kts | 286° |
| 2026-05-06 13:27 | 46.43360 | -77.57133 | 35763 ft | 385 kts | 286° |
| 2026-05-06 13:28 | 46.45573 | -77.64195 | 35747 ft | 385 kts | 286° |
| 2026-05-06 13:28 | 46.47792 | -77.71259 | 35742 ft | 385 kts | 286° |
| 2026-05-06 13:29 | 46.50006 | -77.78325 | 35739 ft | 385 kts | 286° |
| 2026-05-06 13:29 | 46.52212 | -77.85400 | 35769 ft | 384 kts | 287° |
| 2026-05-06 13:30 | 46.54384 | -77.92374 | 35773 ft | 381 kts | 286° |
| 2026-05-06 13:30 | 46.56557 | -77.99399 | 35749 ft | 382 kts | 286° |
| 2026-05-06 13:31 | 46.58734 | -78.06456 | 35737 ft | 383 kts | 286° |
| 2026-05-06 13:31 | 46.60916 | -78.13531 | 35740 ft | 384 kts | 286° |
| 2026-05-06 13:32 | 46.63095 | -78.20613 | 35767 ft | 384 kts | 286° |
| 2026-05-06 13:32 | 46.65270 | -78.27712 | 35741 ft | 384 kts | 286° |
| 2026-05-06 13:33 | 46.67440 | -78.34819 | 35737 ft | 384 kts | 286° |
| 2026-05-06 13:33 | 46.69602 | -78.41908 | 35738 ft | 385 kts | 286° |
| 2026-05-06 13:34 | 46.71772 | -78.49033 | 35733 ft | 385 kts | 286° |
| 2026-05-06 13:34 | 46.73942 | -78.56176 | 35762 ft | 385 kts | 286° |
| 2026-05-06 13:35 | 46.76103 | -78.63314 | 35744 ft | 386 kts | 286° |
| 2026-05-06 13:35 | 46.78266 | -78.70483 | 35737 ft | 386 kts | 286° |
| 2026-05-06 13:36 | 46.80430 | -78.77667 | 35734 ft | 387 kts | 286° |
| 2026-05-06 13:36 | 46.82587 | -78.84869 | 35731 ft | 387 kts | 286° |
| 2026-05-06 13:37 | 46.84738 | -78.92076 | 35725 ft | 387 kts | 286° |
| 2026-05-06 13:37 | 46.86899 | -78.99323 | 35723 ft | 390 kts | 285° |
| 2026-05-06 13:38 | 46.89068 | -79.06615 | 35715 ft | 392 kts | 285° |
| 2026-05-06 13:38 | 46.91219 | -79.13882 | 35713 ft | 393 kts | 285° |
| 2026-05-06 13:39 | 46.93386 | -79.21221 | 35708 ft | 393 kts | 285° |
| 2026-05-06 13:39 | 46.95550 | -79.28563 | 35710 ft | 393 kts | 285° |
| 2026-05-06 13:40 | 46.97711 | -79.35914 | 35737 ft | 394 kts | 285° |
| 2026-05-06 13:40 | 46.99873 | -79.43290 | 35728 ft | 394 kts | 285° |
| 2026-05-06 13:41 | 47.02032 | -79.50687 | 35716 ft | 395 kts | 285° |
| 2026-05-06 13:41 | 47.04181 | -79.58077 | 35716 ft | 395 kts | 285° |
| 2026-05-06 13:42 | 47.06323 | -79.65479 | 35714 ft | 395 kts | 285° |
| 2026-05-06 13:42 | 47.08467 | -79.72897 | 35742 ft | 394 kts | 285° |
| 2026-05-06 13:43 | 47.10611 | -79.80300 | 35726 ft | 394 kts | 285° |
| 2026-05-06 13:43 | 47.12738 | -79.87706 | 35718 ft | 394 kts | 285° |
| 2026-05-06 13:44 | 47.14864 | -79.95126 | 35708 ft | 394 kts | 285° |
| 2026-05-06 13:44 | 47.16976 | -80.02490 | 35713 ft | 394 kts | 285° |
| 2026-05-06 13:45 | 47.19097 | -80.09932 | 35722 ft | 396 kts | 285° |
| 2026-05-06 13:45 | 47.22271 | -80.21152 | 35710 ft | 396 kts | 285° |
| 2026-05-06 13:46 | 47.24385 | -80.28625 | 35694 ft | 395 kts | 285° |
| 2026-05-06 13:46 | 47.26490 | -80.36102 | 35680 ft | 395 kts | 285° |
| 2026-05-06 13:47 | 47.28598 | -80.43586 | 35677 ft | 396 kts | 285° |
| 2026-05-06 13:47 | 47.30703 | -80.51080 | 35690 ft | 396 kts | 285° |
| 2026-05-06 13:48 | 47.32801 | -80.58604 | 35685 ft | 397 kts | 285° |
| 2026-05-06 13:48 | 47.34538 | -80.64871 | 35680 ft | 398 kts | 285° |
| 2026-05-06 13:49 | 47.36633 | -80.72428 | 35680 ft | 398 kts | 285° |
| 2026-05-06 13:49 | 47.38722 | -80.79990 | 35682 ft | 398 kts | 285° |
| 2026-05-06 13:50 | 47.40815 | -80.87569 | 35700 ft | 399 kts | 285° |
| 2026-05-06 13:50 | 47.42910 | -80.95184 | 35686 ft | 401 kts | 285° |
| 2026-05-06 13:51 | 47.45002 | -81.02817 | 35681 ft | 401 kts | 285° |
| 2026-05-06 13:51 | 47.47096 | -81.10466 | 35679 ft | 402 kts | 285° |
| 2026-05-06 13:52 | 47.49186 | -81.18147 | 35673 ft | 403 kts | 285° |
| 2026-05-06 13:52 | 47.51272 | -81.25839 | 35672 ft | 403 kts | 285° |
| 2026-05-06 13:53 | 47.53363 | -81.33544 | 35673 ft | 403 kts | 285° |
| 2026-05-06 13:53 | 47.55443 | -81.41253 | 35673 ft | 403 kts | 285° |
| 2026-05-06 13:54 | 47.57515 | -81.48971 | 35668 ft | 403 kts | 285° |
| 2026-05-06 13:54 | 47.59580 | -81.56704 | 35671 ft | 404 kts | 285° |
| 2026-05-06 13:55 | 47.61646 | -81.64443 | 35668 ft | 404 kts | 286° |
| 2026-05-06 13:55 | 47.63719 | -81.72209 | 35650 ft | 405 kts | 286° |
| 2026-05-06 13:56 | 47.65781 | -81.79972 | 35650 ft | 405 kts | 286° |
| 2026-05-06 13:56 | 47.67836 | -81.87747 | 35649 ft | 405 kts | 285° |
| 2026-05-06 13:57 | 47.69889 | -81.95533 | 35642 ft | 405 kts | 285° |
| 2026-05-06 13:57 | 47.71918 | -82.03277 | 35667 ft | 405 kts | 286° |
| 2026-05-06 13:58 | 47.73960 | -82.11091 | 35662 ft | 406 kts | 286° |
| 2026-05-06 13:58 | 47.76010 | -82.18958 | 35661 ft | 407 kts | 286° |
| 2026-05-06 13:59 | 47.78044 | -82.26773 | 35659 ft | 409 kts | 286° |
| 2026-05-06 13:59 | 47.80092 | -82.34658 | 35650 ft | 409 kts | 286° |
| 2026-05-06 14:00 | 47.82129 | -82.42562 | 35664 ft | 409 kts | 286° |
| 2026-05-06 14:00 | 47.84166 | -82.50476 | 35657 ft | 410 kts | 286° |
| 2026-05-06 14:01 | 47.86213 | -82.58454 | 35661 ft | 410 kts | 286° |
| 2026-05-06 14:01 | 47.88235 | -82.66354 | 35661 ft | 411 kts | 286° |
| 2026-05-06 14:02 | 47.90277 | -82.74365 | 35665 ft | 411 kts | 286° |
| 2026-05-06 14:02 | 47.92284 | -82.82277 | 35677 ft | 411 kts | 286° |
| 2026-05-06 14:03 | 47.94298 | -82.90271 | 35693 ft | 412 kts | 286° |
| 2026-05-06 14:03 | 47.96315 | -82.98284 | 35717 ft | 413 kts | 286° |
| 2026-05-06 14:04 | 47.98329 | -83.06305 | 35739 ft | 413 kts | 286° |
| 2026-05-06 14:04 | 48.00344 | -83.14341 | 35755 ft | 413 kts | 286° |
| 2026-05-06 14:05 | 48.02346 | -83.22363 | 35777 ft | 414 kts | 286° |
| 2026-05-06 14:05 | 48.04355 | -83.30432 | 35770 ft | 415 kts | 286° |
| 2026-05-06 14:06 | 48.06366 | -83.38524 | 35750 ft | 416 kts | 286° |
| 2026-05-06 14:06 | 48.08353 | -83.46623 | 35679 ft | 416 kts | 286° |
| 2026-05-06 14:07 | 48.10348 | -83.54760 | 35685 ft | 416 kts | 286° |
| 2026-05-06 14:07 | 48.12344 | -83.62890 | 35701 ft | 416 kts | 286° |
| 2026-05-06 14:08 | 48.14340 | -83.71038 | 35694 ft | 417 kts | 286° |
| 2026-05-06 14:08 | 48.16307 | -83.79141 | 35695 ft | 418 kts | 286° |
| 2026-05-06 14:09 | 48.18282 | -83.87299 | 35703 ft | 418 kts | 286° |
| 2026-05-06 14:09 | 48.20257 | -83.95503 | 35707 ft | 418 kts | 286° |
| 2026-05-06 14:10 | 48.22227 | -84.03714 | 35722 ft | 418 kts | 286° |
| 2026-05-06 14:10 | 48.24197 | -84.11922 | 35716 ft | 418 kts | 286° |
| 2026-05-06 14:11 | 48.26157 | -84.20140 | 35712 ft | 419 kts | 286° |
| 2026-05-06 14:11 | 48.28120 | -84.28372 | 35713 ft | 419 kts | 286° |
| 2026-05-06 14:12 | 48.30074 | -84.36615 | 35736 ft | 419 kts | 286° |
| 2026-05-06 14:12 | 48.32018 | -84.44879 | 35740 ft | 420 kts | 287° |
| 2026-05-06 14:13 | 48.33962 | -84.53163 | 35732 ft | 420 kts | 286° |
| 2026-05-06 14:13 | 48.35901 | -84.61466 | 35730 ft | 421 kts | 286° |
| 2026-05-06 14:14 | 48.37841 | -84.69759 | 35728 ft | 421 kts | 286° |
| 2026-05-06 14:14 | 48.39776 | -84.78059 | 35728 ft | 420 kts | 286° |
| 2026-05-06 14:15 | 48.41699 | -84.86372 | 35736 ft | 421 kts | 287° |
| 2026-05-06 14:15 | 48.43615 | -84.94700 | 35732 ft | 421 kts | 287° |
| 2026-05-06 14:16 | 48.45521 | -85.02981 | 35741 ft | 422 kts | 287° |
| 2026-05-06 14:16 | 48.47428 | -85.11340 | 35743 ft | 422 kts | 286° |
| 2026-05-06 14:17 | 48.49326 | -85.19714 | 35750 ft | 422 kts | 286° |
| 2026-05-06 14:17 | 48.51223 | -85.28092 | 35749 ft | 422 kts | 286° |
| 2026-05-06 14:18 | 48.53125 | -85.36467 | 35757 ft | 422 kts | 286° |
| 2026-05-06 14:18 | 48.55019 | -85.44858 | 35759 ft | 422 kts | 286° |
| 2026-05-06 14:19 | 48.56899 | -85.53257 | 35774 ft | 423 kts | 286° |
| 2026-05-06 14:19 | 48.58776 | -85.61669 | 35752 ft | 423 kts | 286° |
| 2026-05-06 14:20 | 48.60651 | -85.70105 | 35729 ft | 423 kts | 286° |
| 2026-05-06 14:20 | 48.62534 | -85.78606 | 35782 ft | 428 kts | 286° |
| 2026-05-06 14:21 | 48.64422 | -85.87136 | 35800 ft | 427 kts | 286° |
| 2026-05-06 14:21 | 48.66297 | -85.95654 | 35796 ft | 426 kts | 286° |
| 2026-05-06 14:22 | 48.68146 | -86.04106 | 35795 ft | 425 kts | 286° |
| 2026-05-06 14:22 | 48.69995 | -86.12603 | 35786 ft | 425 kts | 286° |
| 2026-05-06 14:23 | 48.71836 | -86.21117 | 35785 ft | 425 kts | 286° |
| 2026-05-06 14:23 | 48.73674 | -86.29636 | 35781 ft | 426 kts | 286° |
| 2026-05-06 14:24 | 48.75071 | -86.38312 | 35790 ft | 424 kts | 279° |
| 2026-05-06 14:24 | 48.76200 | -86.47085 | 35791 ft | 424 kts | 279° |
| 2026-05-06 14:25 | 48.77333 | -86.55865 | 35793 ft | 424 kts | 279° |
| 2026-05-06 14:25 | 48.78462 | -86.64659 | 35787 ft | 425 kts | 279° |
| 2026-05-06 14:26 | 48.79580 | -86.73468 | 35792 ft | 425 kts | 279° |
| 2026-05-06 14:26 | 48.80682 | -86.82282 | 35792 ft | 425 kts | 279° |
| 2026-05-06 14:27 | 48.81785 | -86.91092 | 35802 ft | 426 kts | 279° |
| 2026-05-06 14:27 | 48.82884 | -86.99913 | 35803 ft | 426 kts | 279° |
| 2026-05-06 14:28 | 48.83976 | -87.08758 | 35809 ft | 426 kts | 279° |
| 2026-05-06 14:28 | 48.85061 | -87.17608 | 35807 ft | 427 kts | 279° |
| 2026-05-06 14:29 | 48.86145 | -87.26472 | 35816 ft | 427 kts | 279° |
| 2026-05-06 14:29 | 48.87220 | -87.35335 | 35818 ft | 427 kts | 279° |
| 2026-05-06 14:30 | 48.88288 | -87.44198 | 35826 ft | 427 kts | 279° |
| 2026-05-06 14:30 | 48.89343 | -87.53075 | 35821 ft | 427 kts | 279° |
| 2026-05-06 14:31 | 48.90218 | -87.60470 | 35825 ft | 427 kts | 279° |
| 2026-05-06 14:31 | 48.91437 | -87.70803 | 35828 ft | 427 kts | 279° |
| 2026-05-06 14:32 | 48.92475 | -87.79694 | 35831 ft | 427 kts | 279° |
| 2026-05-06 14:32 | 48.93339 | -87.87156 | 35836 ft | 428 kts | 279° |
| 2026-05-06 14:33 | 48.94360 | -87.96006 | 35841 ft | 428 kts | 279° |
| 2026-05-06 14:33 | 48.95386 | -88.04920 | 35840 ft | 428 kts | 279° |
| 2026-05-06 14:34 | 48.96405 | -88.13836 | 35846 ft | 428 kts | 279° |
| 2026-05-06 14:34 | 48.97420 | -88.22760 | 35851 ft | 428 kts | 278° |
| 2026-05-06 14:35 | 48.98419 | -88.31699 | 35853 ft | 428 kts | 278° |
| 2026-05-06 14:35 | 48.99407 | -88.40622 | 35861 ft | 428 kts | 278° |
| 2026-05-06 14:36 | 49.00389 | -88.49562 | 35865 ft | 428 kts | 278° |
| 2026-05-06 14:36 | 49.01378 | -88.58515 | 35866 ft | 428 kts | 278° |
| 2026-05-06 14:37 | 49.02361 | -88.67456 | 35875 ft | 428 kts | 278° |
| 2026-05-06 14:37 | 49.03331 | -88.76412 | 35876 ft | 428 kts | 278° |
| 2026-05-06 14:38 | 49.04287 | -88.85375 | 35879 ft | 429 kts | 278° |
| 2026-05-06 14:38 | 49.05239 | -88.94344 | 35882 ft | 429 kts | 278° |
| 2026-05-06 14:39 | 49.06189 | -89.03328 | 35890 ft | 429 kts | 278° |
| 2026-05-06 14:39 | 49.07131 | -89.12300 | 35893 ft | 429 kts | 278° |
| 2026-05-06 14:40 | 49.08066 | -89.21294 | 35908 ft | 429 kts | 278° |
| 2026-05-06 14:40 | 49.09000 | -89.30306 | 35909 ft | 430 kts | 278° |
| 2026-05-06 14:41 | 49.09921 | -89.39323 | 35908 ft | 431 kts | 278° |
| 2026-05-06 14:41 | 49.10837 | -89.48366 | 35913 ft | 431 kts | 278° |
| 2026-05-06 14:42 | 49.11741 | -89.57345 | 35917 ft | 431 kts | 278° |
| 2026-05-06 14:42 | 49.12651 | -89.66403 | 35926 ft | 431 kts | 278° |
| 2026-05-06 14:43 | 49.13549 | -89.75457 | 35926 ft | 431 kts | 278° |
| 2026-05-06 14:43 | 49.14438 | -89.84514 | 35932 ft | 431 kts | 278° |
| 2026-05-06 14:44 | 49.15321 | -89.93530 | 35932 ft | 431 kts | 278° |
| 2026-05-06 14:45 | 49.16628 | -90.07078 | 35980 ft | 424 kts | 278° |
| 2026-05-06 14:45 | 49.17473 | -90.15916 | 35959 ft | 419 kts | 278° |
| 2026-05-06 14:46 | 49.18315 | -90.24743 | 35958 ft | 420 kts | 278° |
| 2026-05-06 14:46 | 49.19141 | -90.33600 | 35963 ft | 421 kts | 278° |
| 2026-05-06 14:47 | 49.19964 | -90.42478 | 35969 ft | 422 kts | 278° |
| 2026-05-06 14:47 | 49.20783 | -90.51364 | 35968 ft | 422 kts | 278° |
| 2026-05-06 14:48 | 49.21601 | -90.60256 | 35976 ft | 422 kts | 278° |
| 2026-05-06 14:48 | 49.22413 | -90.69154 | 35973 ft | 422 kts | 278° |
| 2026-05-06 14:49 | 49.23208 | -90.78056 | 35985 ft | 423 kts | 278° |
| 2026-05-06 14:49 | 49.24001 | -90.86977 | 35991 ft | 423 kts | 278° |
| 2026-05-06 14:50 | 49.24792 | -90.95911 | 35997 ft | 423 kts | 278° |
| 2026-05-06 14:50 | 49.25572 | -91.04841 | 36008 ft | 423 kts | 278° |
| 2026-05-06 14:51 | 49.26346 | -91.13765 | 36006 ft | 423 kts | 278° |
| 2026-05-06 14:51 | 49.27109 | -91.22684 | 36007 ft | 423 kts | 277° |
| 2026-05-06 14:52 | 49.27871 | -91.31614 | 36012 ft | 422 kts | 277° |
| 2026-05-06 14:52 | 49.28627 | -91.40528 | 36005 ft | 422 kts | 277° |
| 2026-05-06 14:53 | 49.29373 | -91.49462 | 36009 ft | 423 kts | 277° |
| 2026-05-06 14:53 | 49.30102 | -91.58339 | 36017 ft | 423 kts | 277° |
| 2026-05-06 14:54 | 49.30837 | -91.67294 | 36017 ft | 424 kts | 277° |
| 2026-05-06 14:54 | 49.31562 | -91.76258 | 36025 ft | 424 kts | 277° |
| 2026-05-06 14:55 | 49.32289 | -91.85245 | 36010 ft | 424 kts | 277° |
| 2026-05-06 14:55 | 49.33005 | -91.94221 | 36014 ft | 425 kts | 277° |
| 2026-05-06 14:56 | 49.33706 | -92.03216 | 36024 ft | 425 kts | 277° |
| 2026-05-06 14:56 | 49.34407 | -92.12210 | 36019 ft | 425 kts | 277° |
| 2026-05-06 14:57 | 49.35109 | -92.21207 | 36019 ft | 425 kts | 277° |
| 2026-05-06 14:57 | 49.35798 | -92.30207 | 36023 ft | 425 kts | 277° |
| 2026-05-06 14:58 | 49.36477 | -92.39209 | 36028 ft | 424 kts | 277° |
| 2026-05-06 14:58 | 49.37146 | -92.48204 | 36028 ft | 424 kts | 277° |
| 2026-05-06 14:59 | 49.37802 | -92.57147 | 36035 ft | 424 kts | 277° |
| 2026-05-06 14:59 | 49.38464 | -92.66191 | 36038 ft | 425 kts | 277° |
| 2026-05-06 15:00 | 49.39115 | -92.75134 | 36043 ft | 424 kts | 277° |
| 2026-05-06 15:00 | 49.39769 | -92.84129 | 36046 ft | 424 kts | 277° |
| 2026-05-06 15:01 | 49.40403 | -92.93121 | 36045 ft | 424 kts | 277° |
| 2026-05-06 15:01 | 49.41026 | -93.02118 | 36046 ft | 424 kts | 277° |
| 2026-05-06 15:02 | 49.41648 | -93.11123 | 36042 ft | 424 kts | 277° |
| 2026-05-06 15:02 | 49.42267 | -93.20123 | 36039 ft | 424 kts | 277° |
| 2026-05-06 15:03 | 49.42880 | -93.29127 | 36041 ft | 424 kts | 276° |
| 2026-05-06 15:03 | 49.43477 | -93.38131 | 36046 ft | 424 kts | 276° |
| 2026-05-06 15:04 | 49.44070 | -93.47139 | 36048 ft | 424 kts | 276° |
| 2026-05-06 15:04 | 49.44659 | -93.56143 | 36050 ft | 424 kts | 276° |
| 2026-05-06 15:05 | 49.45245 | -93.65154 | 36049 ft | 423 kts | 276° |
| 2026-05-06 15:05 | 49.45818 | -93.74164 | 36050 ft | 423 kts | 276° |
| 2026-05-06 15:06 | 49.46379 | -93.83166 | 36053 ft | 423 kts | 276° |
| 2026-05-06 15:06 | 49.46933 | -93.92181 | 36045 ft | 424 kts | 276° |
| 2026-05-06 15:07 | 49.47486 | -94.01199 | 36044 ft | 424 kts | 276° |
| 2026-05-06 15:07 | 49.47998 | -94.10235 | 36043 ft | 424 kts | 275° |
| 2026-05-06 15:08 | 49.48404 | -94.19298 | 35818 ft | 425 kts | 275° |
| 2026-05-06 15:08 | 49.48589 | -94.23826 | 35582 ft | 424 kts | 275° |
| 2026-05-06 15:08 | 49.48777 | -94.28352 | 35347 ft | 424 kts | 275° |
| 2026-05-06 15:08 | 49.48968 | -94.32876 | 35109 ft | 423 kts | 275° |
| 2026-05-06 15:09 | 49.49159 | -94.37391 | 34874 ft | 423 kts | 275° |
| 2026-05-06 15:09 | 49.49352 | -94.41910 | 34650 ft | 423 kts | 275° |
| 2026-05-06 15:09 | 49.49543 | -94.46398 | 34431 ft | 423 kts | 275° |
| 2026-05-06 15:09 | 49.49733 | -94.50912 | 34067 ft | 423 kts | 275° |
| 2026-05-06 15:10 | 49.49920 | -94.55422 | 33829 ft | 422 kts | 275° |
| 2026-05-06 15:10 | 49.50105 | -94.59922 | 33557 ft | 422 kts | 275° |
| 2026-05-06 15:10 | 49.50288 | -94.64435 | 33287 ft | 422 kts | 275° |
| 2026-05-06 15:10 | 49.50470 | -94.68934 | 32948 ft | 419 kts | 275° |
| 2026-05-06 15:11 | 49.50651 | -94.73385 | 32412 ft | 415 kts | 275° |
| 2026-05-06 15:11 | 49.50826 | -94.77800 | 31889 ft | 412 kts | 275° |
| 2026-05-06 15:11 | 49.51001 | -94.82176 | 31366 ft | 408 kts | 275° |
| 2026-05-06 15:11 | 49.51175 | -94.86468 | 30870 ft | 405 kts | 275° |
| 2026-05-06 15:12 | 49.51348 | -94.90837 | 30356 ft | 402 kts | 275° |
| 2026-05-06 15:12 | 49.51509 | -94.95108 | 29815 ft | 399 kts | 274° |
| 2026-05-06 15:12 | 49.51663 | -94.99288 | 29304 ft | 394 kts | 274° |
| 2026-05-06 15:12 | 49.51817 | -95.03465 | 28825 ft | 388 kts | 274° |
| 2026-05-06 15:13 | 49.51968 | -95.07576 | 28346 ft | 383 kts | 274° |
| 2026-05-06 15:13 | 49.52117 | -95.11635 | 27875 ft | 377 kts | 274° |
| 2026-05-06 15:13 | 49.52268 | -95.15640 | 27416 ft | 372 kts | 274° |
| 2026-05-06 15:13 | 49.52415 | -95.19580 | 26967 ft | 367 kts | 274° |
| 2026-05-06 15:14 | 49.52556 | -95.23469 | 26544 ft | 362 kts | 274° |
| 2026-05-06 15:14 | 49.52692 | -95.27312 | 26115 ft | 357 kts | 274° |
| 2026-05-06 15:14 | 49.52823 | -95.31099 | 25708 ft | 352 kts | 274° |
| 2026-05-06 15:14 | 49.52911 | -95.33625 | 25433 ft | 348 kts | 274° |
| 2026-05-06 15:15 | 49.53080 | -95.38506 | 24911 ft | 342 kts | 274° |
| 2026-05-06 15:15 | 49.53203 | -95.42145 | 24536 ft | 338 kts | 274° |
| 2026-05-06 15:15 | 49.53324 | -95.45740 | 24147 ft | 334 kts | 274° |
| 2026-05-06 15:15 | 49.53442 | -95.49290 | 23757 ft | 331 kts | 274° |
| 2026-05-06 15:16 | 49.53559 | -95.52810 | 23351 ft | 328 kts | 274° |
| 2026-05-06 15:16 | 49.53636 | -95.55121 | 23073 ft | 325 kts | 274° |
| 2026-05-06 15:16 | 49.53750 | -95.58589 | 22690 ft | 324 kts | 274° |
| 2026-05-06 15:16 | 49.53859 | -95.62038 | 22314 ft | 322 kts | 274° |
| 2026-05-06 15:17 | 49.53970 | -95.65475 | 21922 ft | 320 kts | 274° |
| 2026-05-06 15:17 | 49.54082 | -95.68891 | 21538 ft | 319 kts | 275° |
| 2026-05-06 15:17 | 49.54192 | -95.72291 | 21154 ft | 317 kts | 275° |
| 2026-05-06 15:17 | 49.54299 | -95.75674 | 20761 ft | 316 kts | 275° |
| 2026-05-06 15:18 | 49.54417 | -95.79046 | 20369 ft | 314 kts | 278° |
| 2026-05-06 15:18 | 49.54808 | -95.82323 | 19973 ft | 310 kts | 287° |
| 2026-05-06 15:18 | 49.55549 | -95.85427 | 19581 ft | 308 kts | 295° |
| 2026-05-06 15:18 | 49.56397 | -95.88447 | 19193 ft | 307 kts | 295° |
| 2026-05-06 15:19 | 49.57235 | -95.91464 | 18808 ft | 306 kts | 295° |
| 2026-05-06 15:19 | 49.58064 | -95.94480 | 18416 ft | 305 kts | 295° |
| 2026-05-06 15:19 | 49.58888 | -95.97476 | 18001 ft | 303 kts | 295° |
| 2026-05-06 15:19 | 49.59710 | -96.00464 | 17612 ft | 302 kts | 295° |
| 2026-05-06 15:20 | 49.60529 | -96.03445 | 17148 ft | 301 kts | 295° |
| 2026-05-06 15:20 | 49.61344 | -96.06409 | 16768 ft | 299 kts | 295° |
| 2026-05-06 15:20 | 49.62152 | -96.09347 | 16400 ft | 297 kts | 295° |
| 2026-05-06 15:20 | 49.62953 | -96.12272 | 16025 ft | 295 kts | 295° |
| 2026-05-06 15:21 | 49.63747 | -96.15182 | 15658 ft | 294 kts | 295° |
| 2026-05-06 15:21 | 49.64537 | -96.18080 | 15299 ft | 292 kts | 295° |
| 2026-05-06 15:21 | 49.65322 | -96.20957 | 14930 ft | 291 kts | 295° |
| 2026-05-06 15:21 | 49.66106 | -96.23827 | 14566 ft | 289 kts | 296° |
| 2026-05-06 15:22 | 49.66885 | -96.26682 | 14204 ft | 288 kts | 296° |
| 2026-05-06 15:22 | 49.67659 | -96.29524 | 13838 ft | 287 kts | 296° |
| 2026-05-06 15:22 | 49.68428 | -96.32350 | 13435 ft | 285 kts | 296° |
| 2026-05-06 15:22 | 49.69190 | -96.35154 | 13078 ft | 283 kts | 295° |
| 2026-05-06 15:23 | 49.69941 | -96.37925 | 12711 ft | 281 kts | 295° |
| 2026-05-06 15:23 | 49.70691 | -96.40706 | 12344 ft | 280 kts | 295° |
| 2026-05-06 15:23 | 49.71448 | -96.43508 | 11974 ft | 278 kts | 295° |
| 2026-05-06 15:23 | 49.72188 | -96.46251 | 11612 ft | 276 kts | 295° |
| 2026-05-06 15:24 | 49.72909 | -96.48932 | 11483 ft | 265 kts | 295° |
| 2026-05-06 15:24 | 49.73593 | -96.51489 | 11342 ft | 256 kts | 295° |
| 2026-05-06 15:24 | 49.74113 | -96.54074 | 11218 ft | 251 kts | 279° |
| 2026-05-06 15:24 | 49.73917 | -96.56715 | 11082 ft | 249 kts | 253° |
| 2026-05-06 15:25 | 49.72974 | -96.58963 | 10858 ft | 254 kts | 226° |
| 2026-05-06 15:25 | 49.71441 | -96.60295 | 10770 ft | 258 kts | 197° |
| 2026-05-06 15:25 | 49.69637 | -96.60385 | 10775 ft | 264 kts | 167° |
| 2026-05-06 15:25 | 49.68001 | -96.59150 | 10775 ft | 264 kts | 136° |
| 2026-05-06 15:26 | 49.66934 | -96.56912 | 10779 ft | 259 kts | 111° |
| 2026-05-06 15:26 | 49.66201 | -96.54369 | 10777 ft | 260 kts | 109° |
| 2026-05-06 15:26 | 49.65490 | -96.51803 | 10776 ft | 260 kts | 109° |
| 2026-05-06 15:26 | 49.64787 | -96.49234 | 10779 ft | 260 kts | 109° |
| 2026-05-06 15:27 | 49.64085 | -96.46624 | 10774 ft | 259 kts | 104° |
| 2026-05-06 15:27 | 49.63878 | -96.43979 | 10775 ft | 249 kts | 77° |
| 2026-05-06 15:27 | 49.64440 | -96.41538 | 10775 ft | 239 kts | 50° |
| 2026-05-06 15:27 | 49.65582 | -96.39770 | 10774 ft | 230 kts | 27° |
| 2026-05-06 15:28 | 49.67047 | -96.38908 | 10774 ft | 224 kts | 4° |
| 2026-05-06 15:28 | 49.68581 | -96.39048 | 10773 ft | 221 kts | 342° |
| 2026-05-06 15:28 | 49.69946 | -96.40110 | 10774 ft | 222 kts | 321° |
| 2026-05-06 15:28 | 49.70933 | -96.41940 | 10774 ft | 225 kts | 301° |
| 2026-05-06 15:29 | 49.71617 | -96.44129 | 10776 ft | 227 kts | 297° |
| 2026-05-06 15:29 | 49.72243 | -96.46368 | 10776 ft | 227 kts | 296° |
| 2026-05-06 15:29 | 49.72854 | -96.48626 | 10776 ft | 227 kts | 296° |
| 2026-05-06 15:29 | 49.73459 | -96.50882 | 10780 ft | 227 kts | 296° |
| 2026-05-06 15:30 | 49.74023 | -96.53169 | 10777 ft | 229 kts | 285° |
| 2026-05-06 15:30 | 49.73962 | -96.55648 | 10776 ft | 239 kts | 255° |
| 2026-05-06 15:30 | 49.73014 | -96.57799 | 10780 ft | 251 kts | 221° |
| 2026-05-06 15:30 | 49.71392 | -96.58825 | 10783 ft | 260 kts | 185° |
| 2026-05-06 15:31 | 49.69637 | -96.58218 | 10780 ft | 263 kts | 146° |
| 2026-05-06 15:31 | 49.68436 | -96.56182 | 10779 ft | 257 kts | 108° |
| 2026-05-06 15:31 | 49.67919 | -96.53559 | 10779 ft | 257 kts | 103° |
| 2026-05-06 15:32 | 49.66528 | -96.48426 | 10778 ft | 260 kts | 112° |
| 2026-05-06 15:32 | 49.65853 | -96.45856 | 10773 ft | 255 kts | 95° |
| 2026-05-06 15:32 | 49.66024 | -96.43248 | 10777 ft | 241 kts | 58° |
| 2026-05-06 15:32 | 49.67081 | -96.41379 | 10780 ft | 229 kts | 26° |
| 2026-05-06 15:33 | 49.68562 | -96.40690 | 10777 ft | 222 kts | 357° |
| 2026-05-06 15:33 | 49.70042 | -96.41234 | 10776 ft | 220 kts | 330° |
| 2026-05-06 15:33 | 49.71151 | -96.42846 | 10774 ft | 224 kts | 303° |
| 2026-05-06 15:33 | 49.71828 | -96.45029 | 10776 ft | 226 kts | 297° |
| 2026-05-06 15:34 | 49.72453 | -96.47265 | 10776 ft | 227 kts | 296° |
| 2026-05-06 15:34 | 49.73070 | -96.49515 | 10776 ft | 227 kts | 296° |
| 2026-05-06 15:34 | 49.73697 | -96.51830 | 10677 ft | 254 kts | 294° |
| 2026-05-06 15:34 | 49.73999 | -96.54692 | 10458 ft | 288 kts | 270° |
| 2026-05-06 15:35 | 49.73435 | -96.57688 | 10115 ft | 294 kts | 244° |
| 2026-05-06 15:35 | 49.72293 | -96.60268 | 9924 ft | 288 kts | 238° |
| 2026-05-06 15:35 | 49.71097 | -96.62731 | 9578 ft | 285 kts | 237° |
| 2026-05-06 15:35 | 49.69904 | -96.65162 | 9197 ft | 283 kts | 237° |
| 2026-05-06 15:36 | 49.68714 | -96.67580 | 8831 ft | 282 kts | 237° |
| 2026-05-06 15:36 | 49.67533 | -96.69978 | 8468 ft | 280 kts | 237° |
| 2026-05-06 15:36 | 49.66360 | -96.72360 | 8097 ft | 278 kts | 237° |
| 2026-05-06 15:36 | 49.65192 | -96.74731 | 7729 ft | 277 kts | 237° |
| 2026-05-06 15:37 | 49.64039 | -96.77075 | 7357 ft | 275 kts | 237° |
| 2026-05-06 15:37 | 49.62890 | -96.79425 | 6999 ft | 273 kts | 237° |
| 2026-05-06 15:37 | 49.61752 | -96.81758 | 6647 ft | 272 kts | 237° |
| 2026-05-06 15:37 | 49.60620 | -96.84083 | 6302 ft | 270 kts | 237° |
| 2026-05-06 15:38 | 49.59496 | -96.86391 | 5951 ft | 268 kts | 237° |
| 2026-05-06 15:38 | 49.58377 | -96.88683 | 5906 ft | 268 kts | 237° |
| 2026-05-06 15:38 | 49.57256 | -96.90980 | 5912 ft | 269 kts | 237° |
| 2026-05-06 15:38 | 49.56139 | -96.93272 | 5912 ft | 269 kts | 237° |
| 2026-05-06 15:39 | 49.55018 | -96.95574 | 5887 ft | 268 kts | 237° |
| 2026-05-06 15:39 | 49.53912 | -96.97860 | 5515 ft | 265 kts | 240° |
| 2026-05-06 15:39 | 49.53248 | -97.00410 | 5146 ft | 252 kts | 268° |
| 2026-05-06 15:39 | 49.53441 | -97.03013 | 4793 ft | 243 kts | 289° |
| 2026-05-06 15:40 | 49.53955 | -97.05485 | 4411 ft | 242 kts | 292° |
| 2026-05-06 15:40 | 49.54585 | -97.07844 | 4159 ft | 232 kts | 304° |
| 2026-05-06 15:40 | 49.55640 | -97.09571 | 4027 ft | 220 kts | 327° |
| 2026-05-06 15:40 | 49.56998 | -97.10532 | 3882 ft | 211 kts | 339° |
| 2026-05-06 15:41 | 49.58346 | -97.11310 | 3753 ft | 203 kts | 339° |
| 2026-05-06 15:41 | 49.59629 | -97.12057 | 3646 ft | 190 kts | 339° |
| 2026-05-06 15:41 | 49.60835 | -97.12761 | 3501 ft | 181 kts | 338° |
| 2026-05-06 15:41 | 49.61983 | -97.13428 | 3364 ft | 172 kts | 339° |
| 2026-05-06 15:42 | 49.63077 | -97.14062 | 3237 ft | 163 kts | 338° |
| 2026-05-06 15:42 | 49.64091 | -97.14652 | 3122 ft | 147 kts | 338° |
| 2026-05-06 15:42 | 49.65046 | -97.15210 | 2963 ft | 150 kts | 338° |
| 2026-05-06 15:42 | 49.66031 | -97.15786 | 2919 ft | 152 kts | 338° |
| 2026-05-06 15:43 | 49.67026 | -97.16366 | 2915 ft | 153 kts | 338° |
| 2026-05-06 15:43 | 49.68025 | -97.16948 | 2915 ft | 154 kts | 339° |
| 2026-05-06 15:43 | 49.69025 | -97.17531 | 2917 ft | 154 kts | 338° |
| 2026-05-06 15:43 | 49.70021 | -97.18113 | 2917 ft | 153 kts | 338° |
| 2026-05-06 15:44 | 49.71023 | -97.18697 | 2918 ft | 154 kts | 338° |
| 2026-05-06 15:44 | 49.72029 | -97.19282 | 2921 ft | 154 kts | 338° |
| 2026-05-06 15:44 | 49.73031 | -97.19866 | 2917 ft | 154 kts | 338° |
| 2026-05-06 15:44 | 49.74032 | -97.20449 | 2917 ft | 154 kts | 338° |
| 2026-05-06 15:45 | 49.75034 | -97.21035 | 2919 ft | 155 kts | 338° |
| 2026-05-06 15:45 | 49.76026 | -97.21616 | 2922 ft | 154 kts | 338° |
| 2026-05-06 15:45 | 49.77027 | -97.22203 | 2918 ft | 154 kts | 338° |
| 2026-05-06 15:45 | 49.78027 | -97.22789 | 2919 ft | 154 kts | 338° |
| 2026-05-06 15:46 | 49.79017 | -97.23368 | 2918 ft | 149 kts | 338° |
| 2026-05-06 15:46 | 49.79970 | -97.23924 | 2918 ft | 145 kts | 338° |
| 2026-05-06 15:46 | 49.80908 | -97.24472 | 2861 ft | 144 kts | 338° |
| 2026-05-06 15:46 | 49.81842 | -97.25020 | 2468 ft | 143 kts | 338° |
| 2026-05-06 15:47 | 49.82782 | -97.25517 | 2149 ft | 142 kts | 346° |
| 2026-05-06 15:47 | 49.83730 | -97.25441 | 2072 ft | 132 kts | 5° |
| 2026-05-06 15:47 | 49.84619 | -97.25269 | 1923 ft | 126 kts | 2° |
| 2026-05-06 15:47 | 49.85489 | -97.25092 | 1736 ft | 127 kts | 4° |
| 2026-05-06 15:48 | 49.86361 | -97.24903 | 1528 ft | 126 kts | 3° |
| 2026-05-06 15:48 | 49.87225 | -97.24709 | 1331 ft | 127 kts | 5° |
| 2026-05-06 15:48 | 49.88105 | -97.24499 | 1124 ft | 129 kts | 6° |
| 2026-05-06 15:48 | 49.88992 | -97.24297 | 938 ft | 130 kts | 4° |
| 2026-05-06 15:49 | 49.89878 | -97.24104 | 791 ft | 125 kts | 4° |
| 2026-05-06 15:49 | 49.90588 | -97.23942 | 786 ft | 65 kts | 11° |
| 2026-05-06 15:49 | 49.90767 | -97.23931 | 787 ft | 10 kts | 332° |
| 2026-05-06 15:49 | 49.90791 | -97.23872 | 786 ft | 11 kts | 80° |
| 2026-05-06 15:50 | 49.90806 | -97.23766 | 785 ft | 11 kts | 77° |
| 2026-05-06 15:50 | 49.90821 | -97.23655 | 783 ft | 9 kts | 79° |
| 2026-05-06 15:50 | 49.90834 | -97.23549 | 781 ft | 16 kts | 79° |
| 2026-05-06 15:50 | 49.90858 | -97.23367 | 782 ft | 15 kts | 80° |
| 2026-05-06 15:51 | 49.90871 | -97.23222 | 782 ft | 13 kts | 84° |
| 2026-05-06 15:51 | 49.90880 | -97.23074 | 782 ft | 17 kts | 85° |
| 2026-05-06 15:51 | 49.90888 | -97.22898 | 783 ft | 14 kts | 84° |
| 2026-05-06 15:51 | 49.90900 | -97.22715 | 783 ft | 21 kts | 84° |
| 2026-05-06 15:52 | 49.90911 | -97.22522 | 783 ft | 16 kts | 84° |
| 2026-05-06 15:52 | 49.90917 | -97.22375 | 783 ft | 13 kts | 93° |
| 2026-05-06 15:52 | 49.90876 | -97.22271 | 783 ft | 9 kts | 136° |
| 2026-05-06 15:52 | 49.90826 | -97.22204 | 784 ft | 11 kts | 144° |
| 2026-05-06 15:53 | 49.90774 | -97.22204 | 785 ft | 7 kts | 214° |
| 2026-05-06 15:53 | 49.90747 | -97.22276 | 784 ft | 6 kts | 219° |
| 2026-05-06 15:53 | 49.90721 | -97.22284 | 784 ft | 4 kts | 188° |
| 2026-05-06 15:53 | 49.90687 | -97.22291 | 784 ft | 3 kts | 187° |
| 2026-05-06 15:54 | 49.90674 | -97.22293 | 785 ft | 4 kts | 187° |
| 2026-05-06 15:54 | 49.90664 | -97.22295 | 785 ft | 0 kts | 187° |